Time;durP1;ratioP1;P1;durP2;ratioP2;P2;SDS_P1;SDS_P2;PMS_P1;PMS_P2;Temp;Humidity;BMP_temperature;BMP_pressure;BME280_temperature;BME280_humidity;BME280_pressure;Samples;Min_cycle;Max_cycle;Signal;HPM_P1;HPM_P2
2022/10/06 00:00:45;;;;;;;5.05;2.25;;;;;;;11.16;100.00;100373.42;1832590;76;21692;-66
2022/10/06 00:03:12;;;;;;;8.05;2.85;;;;;;;11.19;100.00;100374.27;1845817;77;21055;-66
2022/10/06 00:05:40;;;;;;;4.97;2.30;;;;;;;11.20;100.00;100369.90;1832258;76;21492;-67
2022/10/06 00:08:08;;;;;;;5.70;2.33;;;;;;;11.17;100.00;100377.23;1853348;76;21675;-67
2022/10/06 00:10:35;;;;;;;6.58;2.47;;;;;;;11.17;100.00;100378.59;1833758;77;21098;-67
2022/10/06 00:13:01;;;;;;;6.80;2.60;;;;;;;11.20;100.00;100373.98;1832916;75;21047;-67
2022/10/06 00:15:29;;;;;;;;;;;;;;;11.23;100.00;100368.02;1829126;77;21151;-67
2022/10/06 00:17:56;;;;;;;;;;;;;;;11.22;100.00;100365.03;1842295;76;20106;-67
2022/10/06 00:20:24;;;;;;;5.45;2.40;;;;;;;11.14;100.00;100366.03;1840677;76;20128;-67
2022/10/06 00:22:51;;;;;;;7.70;2.42;;;;;;;11.05;100.00;100371.16;1806927;77;21563;-67
2022/10/06 00:25:20;;;;;;;5.22;2.50;;;;;;;11.11;100.00;100365.20;1786883;78;21527;-67
2022/10/06 00:27:49;;;;;;;9.15;2.42;;;;;;;11.18;100.00;100361.17;1770732;79;21512;-70
2022/10/06 00:30:24;;;;;;;6.37;2.40;;;;;;;11.19;100.00;100349.73;1730849;81;21023;-67
2022/10/06 00:32:57;;;;;;;9.65;2.72;;;;;;;11.16;100.00;100355.72;1763853;79;21015;-67
2022/10/06 00:35:24;;;;;;;12.70;2.30;;;;;;;11.20;100.00;100356.27;1787005;79;21086;-67
2022/10/06 00:37:51;;;;;;;8.28;2.47;;;;;;;11.28;100.00;100360.42;1763200;79;21422;-70
2022/10/06 00:40:18;;;;;;;4.75;2.40;;;;;;;11.32;100.00;100365.10;1778684;79;21989;-69
2022/10/06 00:43:00;;;;;;;;;;;;;;;11.30;100.00;100356.34;1790019;80;21039;-69
2022/10/06 00:45:39;;;;;;;5.45;2.47;;;;;;;11.32;100.00;100345.20;1783051;80;20246;-69
2022/10/06 00:48:11;;;;;;;6.72;2.58;;;;;;;11.30;100.00;100350.89;1766347;80;21069;-69
2022/10/06 00:50:37;;;;;;;7.90;2.45;;;;;;;11.28;100.00;100348.98;1786953;80;21047;-69
2022/10/06 00:53:04;;;;;;;9.08;2.52;;;;;;;11.27;100.00;100351.42;1771815;79;22336;-70
2022/10/06 00:55:30;;;;;;;;;;;;;;;11.28;100.00;100353.08;1760038;81;21355;-70
2022/10/06 00:57:58;;;;;;;5.92;2.27;;;;;;;11.31;100.00;100346.27;1759234;79;20149;-70
2022/10/06 01:00:25;;;;;;;6.53;2.58;;;;;;;11.28;100.00;100345.44;1757785;80;21078;-70
2022/10/06 01:02:56;;;;;;;5.08;2.10;;;;;;;11.24;100.00;100350.59;1781006;80;21031;-70
2022/10/06 01:05:29;;;;;;;6.58;2.47;;;;;;;11.22;100.00;100347.84;1760266;80;21102;-70
2022/10/06 01:07:56;;;;;;;9.43;2.55;;;;;;;11.26;100.00;100337.53;1762693;79;21625;-67
2022/10/06 01:10:23;;;;;;;5.80;2.20;;;;;;;11.30;100.00;100331.02;1757252;81;21061;-67
2022/10/06 01:12:50;;;;;;;5.60;2.60;;;;;;;11.29;100.00;100333.45;1767673;79;21585;-67
2022/10/06 01:15:20;;;;;;;7.17;2.37;;;;;;;11.23;100.00;100338.60;1757072;80;21066;-67
2022/10/06 01:17:54;;;;;;;8.88;2.10;;;;;;;11.25;100.00;100333.16;1782215;79;21007;-67
2022/10/06 01:20:21;;;;;;;6.72;2.37;;;;;;;11.28;100.00;100327.72;1776765;80;21051;-67
2022/10/06 01:22:52;;;;;;;8.10;2.67;;;;;;;11.28;100.00;100327.18;1749315;80;20967;-68
2022/10/06 01:25:18;;;;;;;6.53;2.62;;;;;;;11.26;100.00;100335.34;1741127;80;21083;-68
2022/10/06 01:27:52;;;;;;;4.70;2.00;;;;;;;11.20;100.00;100336.38;1747430;80;21095;-67
2022/10/06 01:30:34;;;;;;;6.15;2.50;;;;;;;11.20;100.00;100328.20;1733903;81;21079;-67
2022/10/06 01:33:00;;;;;;;8.58;2.42;;;;;;;11.18;100.00;100334.46;1751951;79;21590;-67
2022/10/06 01:35:28;;;;;;;4.70;2.27;;;;;;;11.12;100.00;100332.25;1757403;81;21127;-68
2022/10/06 01:37:57;;;;;;;;;;;;;;;11.03;100.00;100331.08;1748128;80;21085;-67
2022/10/06 01:40:24;;;;;;;8.70;2.85;;;;;;;11.03;100.00;100331.61;1703345;82;20182;-67
2022/10/06 01:42:50;;;;;;;6.95;2.40;;;;;;;10.99;100.00;100329.41;1757200;80;21630;-67
2022/10/06 01:45:17;;;;;;;;;;;;;;;11.02;100.00;100326.70;1730506;81;21076;-67
2022/10/06 01:47:44;;;;;;;6.10;2.40;;;;;;;11.01;100.00;100329.70;1742890;79;20124;-68
2022/10/06 01:50:12;;;;;;;5.85;2.47;;;;;;;10.89;100.00;100324.42;1757245;79;21536;-67
2022/10/06 01:52:38;;;;;;;;;;;;;;;10.91;100.00;100328.52;1750222;79;21569;-68
2022/10/06 01:55:06;;;;;;;9.20;2.40;;;;;;;10.93;100.00;100329.09;1758881;81;20562;-67
2022/10/06 01:57:41;;;;;;;7.22;2.20;;;;;;;10.87;100.00;100331.50;1760328;81;20988;-67
2022/10/06 02:00:10;;;;;;;7.40;2.60;;;;;;;10.84;100.00;100333.36;1758723;79;21047;-68
2022/10/06 02:02:39;;;;;;;4.75;2.40;;;;;;;10.82;100.00;100331.98;1749930;81;21488;-68
2022/10/06 02:05:06;;;;;;;7.40;2.50;;;;;;;10.83;100.00;100331.73;1759360;79;21009;-67
2022/10/06 02:07:35;;;;;;;5.03;2.27;;;;;;;10.86;100.00;100330.39;1752748;81;21037;-67
2022/10/06 02:10:04;;;;;;;5.70;2.37;;;;;;;10.84;100.00;100328.48;1763152;79;21004;-67
2022/10/06 02:12:32;;;;;;;7.33;2.77;;;;;;;10.77;100.00;100326.51;1744848;79;21023;-67
2022/10/06 02:18:33;;;;;;;5.90;2.40;;;;;;;10.70;100.00;100321.25;1791066;78;22938;-66
2022/10/06 02:21:01;;;;;;;7.20;2.33;;;;;;;10.68;100.00;100331.59;1745491;80;21082;-66
2022/10/06 02:23:28;;;;;;;;;;;;;;;10.66;100.00;100326.95;1759929;80;21047;-67
2022/10/06 02:26:04;;;;;;;6.80;2.50;;;;;;;10.60;100.00;100334.77;1698568;83;20161;-66
2022/10/06 02:28:31;;;;;;;5.85;2.37;;;;;;;10.49;100.00;100325.68;1709187;83;21035;-68
2022/10/06 02:31:07;;;;;;;7.72;2.42;;;;;;;10.54;100.00;100324.09;1703837;83;21165;-68
2022/10/06 02:33:35;;;;;;;6.12;2.60;;;;;;;10.56;100.00;100327.39;1703995;83;21874;-68
2022/10/06 02:36:02;;;;;;;6.03;2.80;;;;;;;10.52;100.00;100330.34;1704574;83;21078;-68
2022/10/06 02:38:30;;;;;;;4.78;2.60;;;;;;;10.44;100.00;100341.15;1720412;83;21054;-69
2022/10/06 02:40:58;;;;;;;6.45;2.45;;;;;;;10.41;100.00;100340.30;1690154;84;21078;-68
2022/10/06 02:43:30;;;;;;;5.90;2.47;;;;;;;10.42;100.00;100344.65;1699731;83;21014;-68
2022/10/06 02:46:01;;;;;;;4.22;2.35;;;;;;;10.43;100.00;100347.12;1696108;83;21692;-68
2022/10/06 02:48:28;;;;;;;5.53;2.45;;;;;;;10.43;100.00;100347.66;1704363;83;21161;-68
2022/10/06 02:51:05;;;;;;;7.03;2.55;;;;;;;10.41;100.00;100356.10;1703734;83;21122;-68
2022/10/06 02:53:33;;;;;;;5.20;2.30;;;;;;;10.42;100.00;100340.56;1701523;83;21023;-68
2022/10/06 02:56:02;;;;;;;6.87;2.70;;;;;;;10.47;100.00;100344.18;1713384;82;21537;-68
2022/10/06 02:58:28;;;;;;;5.62;2.65;;;;;;;10.49;100.00;100342.02;1706036;83;21002;-68
2022/10/06 03:01:13;;;;;;;4.58;2.60;;;;;;;10.47;100.00;100340.63;1705889;83;21063;-68
2022/10/06 03:03:40;;;;;;;5.60;2.83;;;;;;;10.42;100.00;100340.56;1695161;83;21062;-68
2022/10/06 03:06:22;;;;;;;6.50;2.33;;;;;;;10.40;100.00;100332.67;1704298;83;21652;-68
2022/10/06 03:09:04;;;;;;;8.28;2.50;;;;;;;10.45;100.00;100336.00;1707712;83;21038;-68
2022/10/06 03:11:36;;;;;;;7.00;2.65;;;;;;;10.46;100.00;100339.80;1704506;83;21076;-68
2022/10/06 03:14:05;;;;;;;8.45;2.65;;;;;;;10.45;100.00;100346.31;1674896;84;21094;-68
2022/10/06 03:16:34;;;;;;;8.75;2.40;;;;;;;10.39;100.00;100346.52;1704724;82;21093;-68
2022/10/06 03:19:03;;;;;;;6.87;2.08;;;;;;;10.38;100.00;100344.34;1733389;81;21514;-68
2022/10/06 03:21:33;;;;;;;5.97;2.45;;;;;;;10.42;100.00;100352.28;1705549;82;21094;-68
2022/10/06 03:24:01;;;;;;;4.55;2.27;;;;;;;10.44;100.00;100341.98;1750828;82;20995;-68
2022/10/06 03:26:31;;;;;;;5.30;2.37;;;;;;;10.43;100.00;100340.32;1740641;80;21083;-68
2022/10/06 03:28:59;;;;;;;6.85;2.67;;;;;;;10.38;100.00;100353.07;1741865;82;21442;-68
2022/10/06 03:31:25;;;;;;;7.72;2.35;;;;;;;10.36;100.00;100343.78;1722397;82;21071;-68
2022/10/06 03:33:55;;;;;;;5.50;2.25;;;;;;;10.38;100.00;100348.98;1745863;82;21015;-68
2022/10/06 03:36:25;;;;;;;5.90;2.70;;;;;;;10.36;100.00;100350.59;1736767;81;21070;-68
2022/10/06 03:38:51;;;;;;;5.30;2.40;;;;;;;10.31;100.00;100348.33;1707748;82;21348;-68
2022/10/06 03:41:21;;;;;;;7.55;2.42;;;;;;;10.20;100.00;100348.75;1714810;81;21067;-68
2022/10/06 03:43:49;;;;;;;9.65;2.65;;;;;;;10.10;100.00;100351.33;1738850;81;21086;-68
2022/10/06 03:46:19;;;;;;;8.65;2.50;;;;;;;10.03;100.00;100345.25;1734469;82;21067;-68
2022/10/06 03:48:46;;;;;;;7.20;2.10;;;;;;;9.98;100.00;100347.40;1745497;81;21113;-68
2022/10/06 03:51:19;;;;;;;6.80;2.47;;;;;;;9.93;100.00;100346.49;1746706;80;21488;-67
2022/10/06 03:53:48;;;;;;;7.30;2.90;;;;;;;9.85;100.00;100351.00;1750832;82;21011;-68
2022/10/06 03:56:20;;;;;;;7.62;2.33;;;;;;;9.72;100.00;100355.45;1752410;80;21117;-68
2022/10/06 03:58:55;;;;;;;6.78;2.50;;;;;;;9.67;100.00;100356.20;1751063;81;21082;-68
2022/10/06 04:01:31;;;;;;;8.15;2.83;;;;;;;9.65;100.00;100361.08;1742980;80;21055;-68
2022/10/06 04:04:01;;;;;;;5.80;2.50;;;;;;;9.64;100.00;100353.98;1715829;82;21534;-68
2022/10/06 04:06:29;;;;;;;10.28;2.85;;;;;;;9.59;100.00;100358.55;1750962;80;21090;-70
2022/10/06 04:08:56;;;;;;;7.47;2.35;;;;;;;9.49;100.00;100357.30;1744352;81;21409;-69
2022/10/06 04:11:28;;;;;;;5.65;2.47;;;;;;;9.44;100.00;100364.05;1730832;81;21106;-68
2022/10/06 04:14:00;;;;;;;6.90;2.42;;;;;;;9.43;100.00;100358.31;1731350;82;21026;-68
2022/10/06 04:16:34;;;;;;;7.33;2.52;;;;;;;9.43;100.00;100361.03;1750625;80;21089;-68
2022/10/06 04:19:03;;;;;;;6.78;2.70;;;;;;;9.40;100.00;100360.17;1739734;81;21075;-68
2022/10/06 04:21:35;;;;;;;6.28;3.00;;;;;;;9.35;100.00;100366.88;1738769;82;21098;-68
2022/10/06 04:24:03;;;;;;;6.67;3.08;;;;;;;9.30;100.00;100371.42;1737671;81;21098;-68
2022/10/06 04:26:34;;;;;;;14.33;2.70;;;;;;;9.29;100.00;100371.95;1751065;80;21157;-68
2022/10/06 04:29:01;;;;;;;8.18;2.62;;;;;;;9.29;100.00;100371.12;1730569;81;21087;-68
2022/10/06 04:31:31;;;;;;;7.75;3.02;;;;;;;9.28;100.00;100372.22;1738395;81;21071;-68
2022/10/06 04:33:59;;;;;;;8.10;2.90;;;;;;;9.27;100.00;100376.83;1739079;81;21032;-68
2022/10/06 04:36:32;;;;;;;9.45;3.00;;;;;;;9.23;100.00;100382.46;1738989;82;21130;-68
2022/10/06 04:39:02;;;;;;;6.35;2.60;;;;;;;9.15;100.00;100377.43;1739973;81;21565;-68
2022/10/06 04:41:34;;;;;;;7.90;2.50;;;;;;;9.13;100.00;100375.51;1732737;81;21586;-68
2022/10/06 04:44:01;;;;;;;8.20;2.65;;;;;;;9.18;100.00;100381.53;1732827;81;21016;-69
2022/10/06 04:46:28;;;;;;;6.20;2.45;;;;;;;9.22;100.00;100382.16;1743119;81;21027;-69
2022/10/06 04:48:55;;;;;;;8.80;2.92;;;;;;;9.26;100.00;100383.32;1740821;81;20976;-69
2022/10/06 04:51:24;;;;;;;7.12;2.65;;;;;;;9.26;100.00;100386.03;1735292;82;21472;-68
2022/10/06 04:53:51;;;;;;;7.75;2.83;;;;;;;9.28;100.00;100386.59;1740000;82;21082;-69
2022/10/06 04:56:22;;;;;;;9.28;3.45;;;;;;;9.33;100.00;100388.05;1738750;82;21070;-68
2022/10/06 04:58:52;;;;;;;7.85;3.05;;;;;;;9.36;100.00;100391.62;1739575;81;21664;-68
2022/10/06 05:01:32;;;;;;;7.70;2.70;;;;;;;9.38;100.00;100385.42;1738506;82;21031;-68
2022/10/06 05:04:01;;;;;;;7.08;3.33;;;;;;;9.38;100.00;100378.63;1754034;81;21636;-68
2022/10/06 05:06:39;;;;;;;5.35;2.70;;;;;;;9.35;100.00;100392.69;1740029;81;21142;-68
2022/10/06 05:09:10;;;;;;;13.20;3.67;;;;;;;9.37;100.00;100385.66;1739204;82;21998;-68
2022/10/06 05:11:38;;;;;;;9.20;2.90;;;;;;;9.42;100.00;100386.55;1738824;82;21079;-68
2022/10/06 05:14:06;;;;;;;11.50;3.20;;;;;;;9.48;100.00;100386.94;1739082;82;21070;-68
2022/10/06 05:16:36;;;;;;;8.58;3.50;;;;;;;9.53;100.00;100386.73;1739416;81;21169;-68
2022/10/06 05:19:03;;;;;;;8.38;3.30;;;;;;;9.54;100.00;100385.64;1744975;82;21058;-68
2022/10/06 05:21:32;;;;;;;9.60;3.15;;;;;;;9.58;100.00;100385.42;1738390;81;21071;-68
2022/10/06 05:23:59;;;;;;;7.65;3.27;;;;;;;9.66;100.00;100391.81;1723446;83;21066;-68
2022/10/06 05:26:29;;;;;;;12.33;3.20;;;;;;;9.74;100.00;100389.47;1729802;81;21624;-68
2022/10/06 05:28:56;;;;;;;11.75;3.65;;;;;;;9.80;100.00;100393.92;1741228;82;21054;-68
2022/10/06 05:31:33;;;;;;;11.08;3.83;;;;;;;9.85;100.00;100395.34;1732144;81;21138;-68
2022/10/06 05:34:02;;;;;;;9.83;3.75;;;;;;;9.90;100.00;100400.03;1729421;81;21104;-69
2022/10/06 05:36:30;;;;;;;7.62;3.50;;;;;;;10.01;100.00;100399.09;1730847;81;21062;-68
2022/10/06 05:38:57;;;;;;;8.10;3.30;;;;;;;10.23;100.00;100398.61;1732621;81;20998;-68
2022/10/06 05:41:27;;;;;;;8.55;3.37;;;;;;;10.51;100.00;100400.83;1719815;81;21506;-69
2022/10/06 05:43:54;;;;;;;8.33;3.10;;;;;;;10.76;100.00;100405.19;1723981;81;21006;-68
2022/10/06 05:46:27;;;;;;;10.20;3.20;;;;;;;11.05;100.00;100401.66;1725071;81;21042;-66
2022/10/06 05:49:02;;;;;;;10.08;3.02;;;;;;;11.36;100.00;100400.30;1722407;81;21038;-66
2022/10/06 05:51:32;;;;;;;9.38;3.10;;;;;;;11.71;100.00;100405.75;1725249;81;21140;-66
2022/10/06 05:54:00;;;;;;;7.42;3.17;;;;;;;12.03;100.00;100411.13;1720396;81;21057;-66
2022/10/06 05:56:29;;;;;;;12.55;2.62;;;;;;;12.31;100.00;100395.70;1726064;81;21065;-66
2022/10/06 05:58:56;;;;;;;6.17;2.58;;;;;;;12.58;100.00;100410.52;1729570;81;21082;-67
2022/10/06 06:01:35;;;;;;;8.78;2.90;;;;;;;12.82;100.00;100402.94;1717610;82;21042;-66
2022/10/06 06:04:07;;;;;;;6.35;2.85;;;;;;;12.99;100.00;100399.98;1716723;81;21695;-68
2022/10/06 06:06:41;;;;;;;8.40;2.67;;;;;;;13.25;100.00;100396.18;1727639;81;21127;-70
2022/10/06 06:09:18;;;;;;;8.28;3.10;;;;;;;13.51;100.00;100394.81;1713145;81;21700;-67
2022/10/06 06:11:49;;;;;;;10.13;3.10;;;;;;;13.68;100.00;100398.89;1725015;81;21152;-68
2022/10/06 06:17:05;;;;;;;6.17;3.10;;;;;;;14.00;100.00;100387.59;1721039;82;21167;-69
2022/10/06 06:19:34;;;;;;;8.28;2.72;;;;;;;14.13;100.00;100391.13;1737122;80;21062;-69
2022/10/06 06:22:00;;;;;;;6.67;2.85;;;;;;;14.29;100.00;100394.61;1741786;80;21681;-70
2022/10/06 06:24:27;;;;;;;8.10;2.60;;;;;;;14.48;100.00;100394.84;1732404;81;21148;-69
2022/10/06 06:26:55;;;;;;;8.75;4.17;;;;;;;14.59;100.00;100390.95;1737287;81;21083;-69
2022/10/06 06:29:22;;;;;;;9.43;3.30;;;;;;;14.75;100.00;100387.02;1740770;81;21054;-68
2022/10/06 06:31:49;;;;;;;7.60;2.70;;;;;;;14.94;100.00;100390.19;1716116;81;21063;-67
2022/10/06 06:34:17;;;;;;;9.78;2.80;;;;;;;15.15;100.00;100385.38;1733572;82;21045;-69
2022/10/06 06:36:46;;;;;;;6.22;2.58;;;;;;;15.31;100.00;100390.16;1709796;81;21656;-70
2022/10/06 06:39:14;;;;;;;8.75;2.52;;;;;;;15.43;100.00;100387.33;1721463;82;21076;-69
2022/10/06 06:41:44;;;;;;;10.10;2.45;;;;;;;15.59;100.00;100383.91;1729699;81;21020;-70
2022/10/06 06:44:29;;;;;;;5.80;2.50;;;;;;;15.63;100.00;100384.14;1747384;81;21000;-67
2022/10/06 06:47:00;;;;;;;5.70;2.10;;;;;;;15.74;100.00;100379.64;1726299;82;21086;-70
2022/10/06 06:49:27;;;;;;;7.42;2.62;;;;;;;15.85;100.00;100374.87;1736599;81;22204;-70
2022/10/06 06:51:55;;;;;;;8.33;2.40;;;;;;;15.98;100.00;100370.05;1741716;81;21142;-70
2022/10/06 06:54:23;;;;;;;4.60;2.30;;;;;;;16.15;100.00;100373.16;1742635;81;21022;-68
2022/10/06 06:56:54;;;;;;;5.47;2.33;;;;;;;16.30;100.00;100362.52;1745052;81;21099;-69
2022/10/06 06:59:21;;;;;;;5.78;2.12;;;;;;;16.40;100.00;100367.91;1740674;81;21066;-66
2022/10/06 07:01:50;;;;;;;6.10;2.22;;;;;;;16.59;100.00;100364.63;1744579;81;21118;-70
2022/10/06 07:04:18;;;;;;;7.67;2.62;;;;;;;16.76;100.00;100363.55;1747839;81;21118;-70
2022/10/06 07:06:57;;;;;;;6.12;2.27;;;;;;;16.93;100.00;100363.05;1735448;81;21071;-68
2022/10/06 07:09:27;;;;;;;6.25;2.33;;;;;;;17.04;100.00;100360.38;1739499;81;21090;-66
2022/10/06 07:11:55;;;;;;;6.17;2.47;;;;;;;17.16;100.00;100359.37;1736015;81;21084;-67
2022/10/06 07:14:23;;;;;;;4.12;2.10;;;;;;;17.30;100.00;100357.48;1730886;81;21058;-67
2022/10/06 07:25:22;;;;;;;8.50;3.17;;;;;;;17.75;100.00;100351.73;1740571;81;21143;-67
2022/10/06 07:27:49;;;;;;;8.93;2.37;;;;;;;17.87;100.00;100341.05;1738021;81;20952;-67
2022/10/06 07:30:25;;;;;;;4.58;2.30;;;;;;;17.93;100.00;100341.75;1741333;81;21094;-70
2022/10/06 07:32:54;;;;;;;6.75;3.00;;;;;;;18.04;100.00;100340.42;1741431;81;21073;-69
2022/10/06 07:35:23;;;;;;;7.92;2.50;;;;;;;18.09;100.00;100339.52;1739937;81;21050;-71
2022/10/06 07:37:52;;;;;;;7.67;4.05;;;;;;;18.16;100.00;100344.05;1738091;81;21015;-70
2022/10/06 07:40:18;;;;;;;5.80;2.58;;;;;;;18.25;100.00;100344.39;1727455;81;21035;-70
2022/10/06 07:42:50;;;;;;;6.65;2.30;;;;;;;18.38;100.00;100341.39;1739481;81;21792;-71
2022/10/06 07:45:43;;;;;;;5.67;2.30;;;;;;;18.57;100.00;100332.98;1732942;81;21043;-70
2022/10/06 07:48:17;;;;;;;6.83;2.30;;;;;;;18.74;100.00;100331.20;1707350;81;21613;-69
2022/10/06 07:50:48;;;;;;;5.80;2.27;;;;;;;18.84;100.00;100330.98;1734509;81;21412;-68
2022/10/06 07:53:17;;;;;;;6.75;2.55;;;;;;;18.82;100.00;100331.02;1736359;81;21035;-68
2022/10/06 07:55:48;;;;;;;4.35;2.27;;;;;;;18.79;100.00;100329.71;1740224;81;21071;-70
2022/10/06 07:58:22;;;;;;;10.58;2.25;;;;;;;18.73;100.00;100331.52;1739884;81;21539;-70
2022/10/06 08:00:51;;;;;;;5.80;2.08;;;;;;;18.83;100.00;100323.01;1747017;81;21099;-67
2022/10/06 08:03:18;;;;;;;6.37;2.20;;;;;;;18.88;100.00;100329.80;1741106;81;21032;-71
2022/10/06 08:05:50;;;;;;;5.67;2.33;;;;;;;18.97;100.00;100322.95;1732262;81;21079;-68
2022/10/06 08:08:18;;;;;;;8.03;2.72;;;;;;;19.13;100.00;100312.59;1714481;81;21628;-68
2022/10/06 08:10:55;;;;;;;7.62;3.65;;;;;;;19.33;100.00;100318.99;1740531;81;21094;-68
2022/10/06 08:13:22;;;;;;;4.87;2.33;;;;;;;19.48;100.00;100318.37;1744103;81;21063;-69
2022/10/06 08:15:50;;;;;;;9.75;2.37;;;;;;;19.49;100.00;100317.22;1741233;81;21087;-69
2022/10/06 08:18:19;;;;;;;5.87;2.50;;;;;;;19.60;100.00;100318.58;1738827;81;21122;-71
2022/10/06 08:20:46;;;;;;;4.92;1.92;;;;;;;19.71;100.00;100316.62;1740327;81;21542;-71
2022/10/06 08:23:13;;;;;;;10.03;3.35;;;;;;;19.85;100.00;100304.07;1741371;81;21573;-71
2022/10/06 08:25:42;;;;;;;8.03;3.55;;;;;;;19.96;100.00;100293.55;1740438;80;21581;-71
2022/10/06 08:28:09;;;;;;;8.03;3.72;;;;;;;20.06;100.00;100297.39;1739872;81;21065;-71
2022/10/06 08:30:36;;;;;;;5.65;1.92;;;;;;;20.06;100.00;100297.39;1745069;81;21067;-67
2022/10/06 08:33:03;;;;;;;4.28;1.90;;;;;;;19.94;100.00;100294.45;1738016;81;21560;-68
2022/10/06 08:35:30;;;;;;;6.28;2.08;;;;;;;19.98;100.00;100298.98;1733299;80;21105;-69
2022/10/06 08:37:56;;;;;;;7.28;2.10;;;;;;;20.20;100.00;100300.27;1735021;81;21012;-68
2022/10/06 08:40:23;;;;;;;6.30;2.02;;;;;;;20.34;100.00;100292.69;1728959;81;21515;-71
2022/10/06 08:42:51;;;;;;;6.85;2.33;;;;;;;20.48;100.00;100295.87;1739861;81;20980;-69
2022/10/06 08:45:34;;;;;;;5.47;2.20;;;;;;;20.58;100.00;100296.36;1720023;82;21530;-70
2022/10/06 08:48:15;;;;;;;5.42;2.27;;;;;;;20.73;100.00;100292.30;1716010;83;21026;-69
2022/10/06 08:50:57;;;;;;;4.15;2.00;;;;;;;20.95;100.00;100293.52;1733219;81;21103;-69
2022/10/06 08:53:38;;;;;;;5.30;2.00;;;;;;;21.07;100.00;100293.68;1737771;81;21065;-69
2022/10/06 08:56:19;;;;;;;9.35;2.20;;;;;;;21.21;100.00;100291.57;1732293;81;21071;-69
2022/10/06 08:58:53;;;;;;;4.20;1.90;;;;;;;21.39;100.00;100302.60;1737219;81;21012;-68
2022/10/06 09:01:26;;;;;;;7.33;2.02;;;;;;;21.52;100.00;100291.31;1738919;81;21792;-71
2022/10/06 09:03:57;;;;;;;3.98;1.90;;;;;;;21.63;100.00;100291.77;1743120;81;21452;-68
2022/10/06 09:06:58;;;;;;;3.95;1.80;;;;;;;21.71;100.00;100288.16;1738703;81;21125;-69
2022/10/06 09:10:02;;;;;;;5.45;1.95;;;;;;;21.86;100.00;100283.42;1735651;81;21059;-71
2022/10/06 09:12:40;;;;;;;5.08;1.70;;;;;;;21.98;100.00;100284.13;1743010;81;21362;-71
2022/10/06 09:15:37;;;;;;;3.95;1.82;;;;;;;21.94;100.00;100287.33;1747311;81;21090;-71
2022/10/06 09:18:12;;;;;;;6.15;2.58;;;;;;;21.94;100.00;100290.10;1717706;81;21074;-68
2022/10/06 09:20:45;;;;;;;6.80;2.00;;;;;;;21.74;100.00;100287.48;1706592;82;21142;-69
2022/10/06 09:23:15;;;;;;;5.47;1.92;;;;;;;21.60;100.00;100290.48;1703440;82;21014;-69
2022/10/06 09:25:41;;;;;;;4.08;2.08;;;;;;;21.53;100.00;100290.18;1708044;83;21578;-67
2022/10/06 09:28:14;;;;;;;4.95;2.00;;;;;;;21.69;100.00;100290.43;1701267;82;21046;-70
2022/10/06 09:30:42;;;;;;;3.92;2.00;;;;;;;21.79;100.00;100286.72;1723121;81;21091;-70
2022/10/06 09:33:17;;;;;;;5.75;2.90;;;;;;;21.90;100.00;100293.27;1711903;83;21015;-72
2022/10/06 09:36:08;;;;;;;4.25;2.08;;;;;;;21.99;100.00;100289.36;1709260;82;21070;-67
2022/10/06 09:38:57;;;;;;;3.58;2.05;;;;;;;21.95;100.00;100288.97;1710046;82;21205;-70
2022/10/06 09:41:39;;;;;;;4.00;2.17;;;;;;;21.86;100.00;100295.11;1703749;82;21142;-71
2022/10/06 09:44:23;;;;;;;4.65;2.02;;;;;;;21.71;100.00;100295.08;1709796;83;21082;-70
2022/10/06 09:46:51;;;;;;;10.13;2.40;;;;;;;21.51;100.00;100298.55;1714723;82;21089;-68
2022/10/06 09:49:23;;;;;;;6.40;2.08;;;;;;;21.38;100.00;100296.81;1710273;82;21367;-68
2022/10/06 09:52:14;;;;;;;6.22;2.35;;;;;;;21.24;100.00;100294.25;1703417;82;21161;-68
2022/10/06 09:54:43;;;;;;;4.00;2.30;;;;;;;21.12;100.00;100296.86;1710332;83;21138;-68
2022/10/06 09:57:17;;;;;;;4.45;2.05;;;;;;;21.01;100.00;100296.95;1712963;83;21771;-70
2022/10/06 09:59:44;;;;;;;7.05;2.30;;;;;;;20.85;100.00;100298.02;1701788;82;21023;-71
2022/10/06 10:02:39;;;;;;;6.17;2.58;;;;;;;20.74;100.00;100293.38;1699981;82;21680;-67
2022/10/06 10:05:19;;;;;;;4.58;2.20;;;;;;;20.60;100.00;100294.11;1706306;82;21151;-70
2022/10/06 10:07:46;;;;;;;6.47;2.40;;;;;;;20.47;100.00;100290.11;1704086;83;21034;-69
2022/10/06 10:10:22;;;;;;;6.20;2.40;;;;;;;20.32;100.00;100283.92;1701077;82;21083;-71
2022/10/06 10:12:52;;;;;;;5.33;2.25;;;;;;;20.27;100.00;100292.35;1708754;82;21561;-70
2022/10/06 10:15:24;;;;;;;6.03;2.62;;;;;;;20.23;100.00;100287.19;1701965;82;21106;-68
2022/10/06 10:18:04;;;;;;;5.58;2.17;;;;;;;20.15;100.00;100279.71;1701076;83;21585;-68
2022/10/06 10:20:38;;;;;;;5.22;2.37;;;;;;;20.13;100.00;100281.97;1713398;81;21049;-68
2022/10/06 10:23:32;;;;;;;6.97;2.50;;;;;;;20.11;100.00;100288.96;1741981;81;21432;-68
2022/10/06 10:26:52;;;;;;;4.83;2.35;;;;;;;20.07;100.00;100285.20;1746394;81;21468;-70
2022/10/06 10:29:33;;;;;;;6.55;2.87;;;;;;;20.02;100.00;100283.41;1732143;82;21062;-67
2022/10/06 10:32:22;;;;;;;6.33;2.80;;;;;;;19.94;100.00;100285.59;1710610;81;21570;-68
2022/10/06 10:35:04;;;;;;;6.35;2.67;;;;;;;19.91;100.00;100280.68;1727447;82;21069;-68
2022/10/06 10:40:41;;;;;;;7.47;2.52;;;;;;;19.99;100.00;100282.66;1784613;79;23415;-67
2022/10/06 10:43:45;;;;;;;4.35;2.75;;;;;;;19.94;100.00;100279.25;1723781;82;21066;-67
2022/10/06 10:46:33;;;;;;;6.10;2.87;;;;;;;19.89;100.00;100284.34;1721312;83;21094;-69
2022/10/06 10:49:19;;;;;;;6.35;2.65;;;;;;;19.88;100.00;100279.95;1655755;82;21592;-68
2022/10/06 10:52:06;;;;;;;6.87;2.77;;;;;;;19.89;100.00;100274.67;1730835;82;21102;-70
2022/10/06 10:54:50;;;;;;;5.90;3.02;;;;;;;19.78;100.00;100272.77;1744638;82;21831;-69
2022/10/06 10:57:21;;;;;;;5.85;2.65;;;;;;;19.72;100.00;100269.91;1751008;81;21090;-71
2022/10/06 11:00:06;;;;;;;8.33;2.90;;;;;;;19.75;100.00;100272.59;1742711;82;21048;-71
2022/10/06 11:02:34;;;;;;;8.93;3.05;;;;;;;19.75;100.00;100278.13;1746346;82;21035;-71
2022/10/06 11:05:13;;;;;;;8.98;2.87;;;;;;;19.69;100.00;100270.56;1742462;82;21281;-69
2022/10/06 11:08:01;;;;;;;6.30;2.70;;;;;;;19.71;100.00;100274.37;1750972;82;21055;-69
2022/10/06 11:10:35;;;;;;;6.10;2.87;;;;;;;19.75;100.00;100267.89;1738484;82;21147;-69
2022/10/06 11:13:26;;;;;;;8.95;2.60;;;;;;;19.77;100.00;100270.31;1745888;82;21542;-69
2022/10/06 11:16:36;;;;;;;8.58;3.95;;;;;;;19.77;100.00;100268.94;1750280;82;21102;-67
2022/10/06 11:19:15;;;;;;;5.87;2.72;;;;;;;19.75;100.00;100273.41;1731258;82;21018;-68
2022/10/06 11:21:54;;;;;;;5.53;2.67;;;;;;;19.72;100.00;100267.16;1723103;82;21546;-68
2022/10/06 11:24:35;;;;;;;5.75;2.98;;;;;;;19.72;100.00;100259.43;1728985;82;21417;-69
2022/10/06 11:27:48;;;;;;;18.00;8.43;;;;;;;19.71;100.00;100259.99;1737472;82;21601;-71
2022/10/06 11:30:25;;;;;;;21.85;9.45;;;;;;;19.74;100.00;100256.59;1745951;82;21031;-69
2022/10/06 11:33:05;;;;;;;8.13;4.35;;;;;;;19.69;100.00;100254.55;1705004;83;21393;-69
2022/10/06 11:35:35;;;;;;;11.28;4.85;;;;;;;19.67;100.00;100255.42;1750390;82;21034;-68
2022/10/06 11:38:26;;;;;;;11.43;5.40;;;;;;;19.66;100.00;100250.45;1723674;82;21042;-68
2022/10/06 11:41:30;;;;;;;9.00;4.75;;;;;;;19.66;100.00;100256.58;1749595;80;21073;-69
2022/10/06 11:44:21;;;;;;;12.45;4.40;;;;;;;19.68;100.00;100251.53;1746344;82;21648;-71
2022/10/06 11:46:58;;;;;;;6.62;3.12;;;;;;;19.71;100.00;100249.51;1734740;82;21122;-69
2022/10/06 11:49:35;;;;;;;14.40;7.97;;;;;;;19.81;100.00;100251.97;1725350;82;21621;-69
2022/10/06 11:52:10;;;;;;;24.50;13.65;;;;;;;19.87;100.00;100245.97;1725549;82;21112;-69
2022/10/06 11:54:48;;;;;;;13.53;6.28;;;;;;;19.93;100.00;100248.60;1729561;82;21649;-69
2022/10/06 11:57:30;;;;;;;10.68;4.60;;;;;;;19.96;100.00;100239.66;1722453;82;22288;-68
2022/10/06 12:00:12;;;;;;;6.40;3.00;;;;;;;19.97;100.00;100250.41;1725042;82;21693;-68
2022/10/06 12:02:41;;;;;;;7.60;2.50;;;;;;;19.97;100.00;100246.83;1732462;82;21070;-71